createdAt,value
2018-07-12T00:01:58.702Z,85.73
2018-07-12T00:05:01.585Z,85.34
2018-07-12T00:08:04.493Z,85.68
2018-07-12T00:11:07.438Z,86.79
2018-07-12T00:14:10.270Z,87.05
2018-07-12T00:17:13.082Z,87.08
2018-07-12T00:20:16.089Z,87.28
2018-07-12T00:23:19.193Z,86.76
2018-07-12T00:26:22.087Z,87.62
2018-07-12T00:29:25.085Z,87.15
2018-07-12T00:32:28.121Z,86.14
2018-07-12T00:35:31.083Z,85.14
2018-07-12T00:38:33.989Z,84.60
2018-07-12T00:41:36.969Z,86.78
2018-07-12T00:44:39.945Z,86.60
2018-07-12T00:47:42.800Z,86.52
2018-07-12T00:50:45.715Z,86.35
2018-07-12T00:53:48.581Z,86.25
2018-07-12T00:56:51.589Z,85.19
2018-07-12T00:59:54.476Z,85.21
2018-07-12T01:02:57.502Z,85.02
2018-07-12T01:06:00.456Z,84.85
2018-07-12T01:09:03.547Z,85.17
2018-07-12T01:12:06.631Z,84.74
2018-07-12T01:15:09.519Z,85.40
2018-07-12T01:18:12.482Z,85.69
2018-07-12T01:21:15.557Z,84.90
2018-07-12T01:24:18.543Z,86.88
2018-07-12T01:27:21.485Z,86.58
2018-07-12T01:30:24.366Z,86.56
2018-07-12T01:33:27.462Z,85.88
2018-07-12T01:36:31.479Z,85.86
2018-07-12T01:39:34.434Z,85.15
2018-07-12T01:42:37.333Z,84.74
2018-07-12T01:45:40.304Z,85.27
2018-07-12T01:48:43.181Z,84.85
2018-07-12T01:51:46.177Z,85.28
2018-07-12T01:54:49.149Z,85.67
2018-07-12T01:57:52.050Z,85.40
2018-07-12T02:00:55.006Z,85.51
2018-07-12T02:03:57.921Z,86.23
2018-07-12T02:07:00.798Z,86.21
2018-07-12T02:10:03.835Z,86.91
2018-07-12T02:13:06.840Z,87.22
2018-07-12T02:16:09.929Z,86.98
2018-07-12T02:19:12.978Z,87.14
2018-07-12T02:22:15.911Z,87.14
2018-07-12T02:25:18.852Z,87.00
2018-07-12T02:28:21.749Z,86.66
2018-07-12T02:31:24.667Z,86.81
2018-07-12T02:34:27.561Z,87.41
2018-07-12T02:37:30.579Z,87.00
2018-07-12T02:40:33.493Z,87.20
2018-07-12T02:43:36.430Z,86.64
2018-07-12T02:46:39.396Z,87.44
2018-07-12T02:49:42.301Z,87.34
2018-07-12T02:52:45.179Z,88.46
2018-07-12T02:55:48.183Z,89.01
2018-07-12T02:58:51.271Z,89.29
2018-07-12T03:01:54.439Z,88.76
2018-07-12T03:04:57.379Z,89.31
2018-07-12T03:08:00.238Z,88.90
2018-07-12T03:11:03.215Z,89.59
2018-07-12T03:14:06.594Z,89.65
2018-07-12T03:17:09.504Z,89.46
2018-07-12T03:20:12.380Z,89.54
2018-07-12T03:23:15.285Z,90.27
2018-07-12T03:26:18.156Z,89.90
2018-07-12T03:29:21.057Z,90.21
2018-07-12T03:32:23.880Z,90.40
2018-07-12T03:35:26.902Z,90.69
2018-07-12T03:38:29.798Z,91.00
2018-07-12T03:41:32.814Z,90.29
2018-07-12T03:44:35.632Z,90.25
2018-07-12T03:47:38.595Z,89.14
2018-07-12T03:50:41.525Z,88.45
2018-07-12T03:53:44.423Z,88.03
2018-07-12T03:56:47.399Z,88.52
2018-07-12T03:59:50.449Z,89.05
2018-07-12T04:02:54.005Z,88.40
2018-07-12T04:05:58.582Z,88.33
2018-07-12T04:09:01.673Z,88.46
2018-07-12T04:12:04.713Z,89.10
2018-07-12T04:15:07.824Z,89.15
2018-07-12T04:18:11.029Z,90.40
2018-07-12T04:21:14.142Z,90.59
2018-07-12T04:24:17.234Z,90.49
2018-07-12T04:27:21.333Z,91.50
2018-07-12T04:30:24.270Z,90.99
2018-07-12T04:33:27.461Z,90.97
2018-07-12T04:36:30.582Z,91.45
2018-07-12T04:39:34.008Z,90.38
2018-07-12T04:42:37.020Z,89.95
2018-07-12T04:45:40.003Z,89.19
2018-07-12T04:48:43.250Z,89.32
2018-07-12T04:51:46.443Z,88.82
2018-07-12T04:54:49.491Z,88.56
2018-07-12T04:57:52.467Z,87.83
2018-07-12T05:00:56.386Z,87.54
2018-07-12T05:03:59.434Z,87.00
2018-07-12T05:07:02.534Z,86.77
2018-07-12T05:10:05.505Z,87.12
2018-07-12T05:13:08.446Z,86.69
2018-07-12T05:16:11.438Z,86.78
2018-07-12T05:19:14.497Z,86.42
2018-07-12T05:22:21.652Z,86.29
2018-07-12T05:25:24.704Z,85.74
2018-07-12T05:28:27.696Z,84.53
2018-07-12T05:31:30.831Z,85.19
2018-07-12T05:34:33.664Z,84.61
2018-07-12T05:37:38.182Z,84.14
2018-07-12T05:40:42.752Z,84.01
2018-07-12T05:43:47.274Z,83.51
2018-07-12T05:46:52.187Z,83.11
2018-07-12T05:49:57.330Z,82.21
2018-07-12T05:53:02.261Z,82.33
2018-07-12T05:56:07.400Z,81.93
2018-07-12T05:59:12.068Z,80.54
2018-07-12T06:02:24.044Z,80.92
2018-07-12T06:05:28.746Z,79.74
2018-07-12T06:08:33.557Z,78.46
2018-07-12T06:11:38.211Z,77.88
2018-07-12T06:14:43.259Z,77.07
2018-07-12T06:17:50.624Z,76.81
2018-07-12T06:20:55.283Z,75.64
2018-07-12T06:23:59.811Z,75.40
2018-07-12T06:27:04.528Z,75.26
2018-07-12T06:30:09.474Z,75.57
2018-07-12T06:33:13.986Z,73.96
2018-07-12T06:36:19.048Z,72.76
2018-07-12T06:39:23.798Z,71.64
2018-07-12T06:42:28.515Z,71.67
2018-07-12T06:45:33.095Z,69.43
2018-07-12T06:48:37.726Z,68.40
2018-07-12T06:51:42.181Z,67.90
2018-07-12T06:54:46.881Z,67.42
2018-07-12T06:57:51.346Z,65.50
2018-07-12T07:00:55.769Z,65.20
2018-07-12T07:04:00.336Z,65.59
2018-07-12T07:07:04.941Z,64.88
2018-07-12T07:10:09.530Z,65.71
2018-07-12T07:13:14.159Z,66.69
2018-07-12T07:16:19.015Z,65.58
2018-07-12T07:19:23.609Z,65.04
2018-07-12T07:22:28.309Z,64.76
2018-07-12T07:25:32.648Z,65.19
2018-07-12T07:28:37.534Z,65.21
2018-07-12T07:31:42.013Z,65.32
2018-07-12T07:34:46.813Z,65.11
2018-07-12T07:37:51.271Z,63.63
2018-07-12T07:40:55.859Z,63.25
2018-07-12T07:44:00.510Z,63.58
2018-07-12T07:47:05.053Z,63.30
2018-07-12T07:50:09.527Z,63.89
2018-07-12T07:53:14.117Z,63.40
2018-07-12T07:56:18.641Z,62.61
2018-07-12T07:59:23.138Z,61.00
2018-07-12T08:02:27.870Z,60.61
2018-07-12T08:05:32.284Z,59.99
2018-07-12T08:08:37.425Z,59.42
2018-07-12T08:11:41.771Z,58.32
2018-07-12T08:14:46.263Z,58.50
2018-07-12T08:17:50.706Z,57.56
2018-07-12T08:20:55.464Z,57.32
2018-07-12T08:23:59.930Z,56.36
2018-07-12T08:27:05.341Z,56.75
2018-07-12T08:30:10.421Z,56.16
2018-07-12T08:33:14.934Z,54.82
2018-07-12T08:36:19.653Z,51.20
2018-07-12T08:39:24.523Z,49.87
2018-07-12T08:42:29.020Z,49.30
2018-07-12T08:45:33.503Z,46.88
2018-07-12T08:48:38.281Z,48.65
2018-07-12T08:51:42.868Z,48.69
2018-07-12T08:54:47.403Z,47.46
2018-07-12T08:57:51.666Z,47.90
2018-07-12T09:00:56.195Z,47.79
2018-07-12T09:04:00.636Z,48.05
2018-07-12T09:07:05.149Z,48.32
2018-07-12T09:10:09.614Z,48.89
2018-07-12T09:13:14.156Z,48.09
2018-07-12T09:16:18.871Z,48.52
2018-07-12T09:19:23.385Z,47.69
2018-07-12T09:22:27.734Z,47.40
2018-07-12T09:25:32.242Z,48.79
2018-07-12T09:28:36.544Z,47.93
2018-07-12T09:31:41.061Z,47.54
2018-07-12T09:34:45.535Z,47.03
2018-07-12T09:37:49.982Z,46.94
2018-07-12T09:40:54.609Z,47.27
2018-07-12T09:43:59.097Z,47.92
2018-07-12T09:47:03.594Z,47.66
2018-07-12T09:50:07.791Z,48.09
2018-07-12T09:53:12.472Z,46.25
2018-07-12T09:56:16.944Z,45.81
2018-07-12T09:59:21.357Z,44.49
2018-07-12T10:02:31.161Z,44.19
2018-07-12T10:05:41.053Z,43.28
2018-07-12T10:08:50.550Z,43.40
2018-07-12T10:12:00.416Z,42.59
2018-07-12T10:15:10.391Z,43.39
2018-07-12T10:18:20.091Z,41.46
2018-07-12T10:21:24.573Z,42.97
2018-07-12T10:24:29.444Z,43.78
2018-07-12T10:27:33.772Z,43.00
2018-07-12T10:30:38.591Z,43.05
2018-07-12T10:33:43.348Z,41.96
2018-07-12T10:36:47.745Z,42.22
2018-07-12T10:39:52.185Z,42.83
2018-07-12T10:42:56.598Z,43.19
2018-07-12T10:46:00.909Z,42.49
2018-07-12T10:49:05.327Z,40.82
2018-07-12T10:52:09.829Z,40.88
2018-07-12T10:55:14.257Z,39.88
2018-07-12T10:58:18.711Z,40.18
2018-07-12T11:01:22.987Z,39.30
2018-07-12T11:04:27.732Z,40.33
2018-07-12T11:07:32.067Z,38.24
2018-07-12T11:10:36.587Z,37.97
2018-07-12T11:13:48.845Z,37.60
2018-07-12T11:16:53.452Z,36.94
2018-07-12T11:19:57.854Z,36.48
2018-07-12T11:23:02.529Z,37.71
2018-07-12T11:26:07.102Z,37.05
2018-07-12T11:29:11.661Z,36.48
2018-07-12T11:32:16.779Z,35.19
2018-07-12T11:35:21.926Z,36.69
2018-07-12T11:38:26.410Z,35.41
2018-07-12T11:41:30.876Z,35.51
2018-07-12T11:44:35.225Z,35.05
2018-07-12T11:47:39.765Z,33.80
2018-07-12T11:50:44.026Z,34.21
2018-07-12T11:53:48.651Z,34.84
2018-07-12T11:56:53.504Z,35.29
2018-07-12T11:59:58.174Z,34.92
2018-07-12T12:03:02.592Z,34.44
2018-07-12T12:06:07.165Z,33.85
2018-07-12T12:09:11.490Z,34.14
2018-07-12T12:12:16.405Z,34.07
2018-07-12T12:15:20.977Z,35.80
2018-07-12T12:18:25.566Z,36.66
2018-07-12T12:21:30.021Z,42.43
2018-07-12T12:24:34.961Z,45.63
2018-07-12T12:27:39.896Z,48.58
2018-07-12T12:30:44.882Z,48.72
2018-07-12T12:33:50.237Z,49.27
2018-07-12T12:36:55.073Z,49.72
2018-07-12T12:39:59.696Z,52.76
2018-07-12T12:43:04.233Z,54.42
2018-07-12T12:46:09.182Z,54.83
2018-07-12T12:49:13.980Z,55.22
2018-07-12T12:52:18.633Z,54.67
2018-07-12T12:55:30.022Z,54.95
2018-07-12T12:58:36.175Z,55.33
2018-07-12T13:01:40.551Z,55.72
2018-07-12T13:04:45.257Z,54.76
2018-07-12T13:07:49.905Z,56.31
2018-07-12T13:10:54.329Z,56.35
2018-07-12T13:13:59.040Z,57.25
2018-07-12T13:17:03.757Z,56.28
2018-07-12T13:20:09.132Z,55.97
2018-07-12T13:23:14.148Z,53.30
2018-07-12T13:26:22.991Z,49.62
2018-07-12T13:29:27.917Z,49.50
2018-07-12T13:32:32.539Z,47.26
2018-07-12T13:35:37.198Z,46.48
2018-07-12T13:38:41.528Z,46.56
2018-07-12T13:41:46.012Z,46.15
2018-07-12T13:44:50.406Z,45.16
2018-07-12T13:47:55.073Z,45.29
2018-07-12T13:50:59.644Z,45.12
2018-07-12T13:54:04.108Z,45.22
2018-07-12T13:57:08.798Z,44.25
2018-07-12T14:00:13.482Z,43.59
2018-07-12T14:03:18.054Z,45.05
2018-07-12T14:06:22.744Z,44.08
2018-07-12T14:09:27.563Z,44.83
2018-07-12T14:12:32.215Z,45.60
2018-07-12T14:15:37.031Z,45.20
2018-07-12T14:18:41.398Z,46.69
2018-07-12T14:21:46.475Z,45.87
2018-07-12T14:24:51.422Z,46.35
2018-07-12T14:27:55.863Z,45.63
2018-07-12T14:31:01.073Z,45.40
2018-07-12T14:34:05.760Z,46.35
2018-07-12T14:37:10.315Z,44.67
2018-07-12T14:40:15.097Z,45.29
2018-07-12T14:43:19.505Z,44.55
2018-07-12T14:46:24.325Z,44.41
2018-07-12T14:49:28.763Z,44.12
2018-07-12T14:52:33.538Z,43.88
2018-07-12T14:55:38.106Z,43.00
2018-07-12T14:58:42.711Z,42.65
2018-07-12T15:01:47.313Z,42.86
2018-07-12T15:04:52.140Z,42.65
2018-07-12T15:07:56.689Z,43.33
2018-07-12T15:11:01.364Z,42.08
2018-07-12T15:14:05.705Z,42.11
2018-07-12T15:17:10.098Z,41.02
2018-07-12T15:20:14.533Z,40.55
2018-07-12T15:23:19.100Z,39.68
2018-07-12T15:26:24.785Z,38.76
2018-07-12T15:29:29.474Z,39.34
2018-07-12T15:32:33.960Z,38.31
2018-07-12T15:35:38.711Z,37.98
2018-07-12T15:38:43.248Z,38.10
2018-07-12T15:41:48.601Z,38.61
2018-07-12T15:44:52.997Z,37.12
2018-07-12T15:47:57.547Z,37.91
2018-07-12T15:51:01.965Z,37.31
2018-07-12T15:54:06.436Z,37.67
2018-07-12T15:57:11.193Z,37.37
2018-07-12T16:00:15.773Z,38.63
2018-07-12T16:03:20.201Z,38.07
2018-07-12T16:06:24.649Z,36.95
2018-07-12T16:09:29.168Z,38.92
2018-07-12T16:12:33.813Z,38.55
2018-07-12T16:15:38.320Z,37.99
2018-07-12T16:18:42.831Z,37.87
2018-07-12T16:21:47.320Z,38.52
2018-07-12T16:24:51.748Z,40.63
2018-07-12T16:27:56.234Z,41.69
2018-07-12T16:31:00.581Z,40.19
2018-07-12T16:34:05.009Z,41.00
2018-07-12T16:37:09.896Z,40.50
2018-07-12T16:40:14.216Z,39.42
2018-07-12T16:43:18.714Z,39.02
2018-07-12T16:46:23.116Z,38.89
2018-07-12T16:49:27.483Z,37.68
2018-07-12T16:52:32.335Z,38.67
2018-07-12T16:55:36.689Z,39.85
2018-07-12T16:58:41.161Z,40.83
2018-07-12T17:01:45.650Z,42.63
2018-07-12T17:04:50.038Z,43.89
2018-07-12T17:07:54.694Z,44.26
2018-07-12T17:10:59.292Z,44.22
2018-07-12T17:14:03.737Z,44.18
2018-07-12T17:17:08.138Z,45.42
2018-07-12T17:20:12.562Z,46.21
2018-07-12T17:23:17.012Z,46.27
2018-07-12T17:26:21.577Z,48.64
2018-07-12T17:29:26.093Z,50.33
2018-07-12T17:32:30.770Z,51.73
2018-07-12T17:35:35.325Z,53.55
2018-07-12T17:38:39.849Z,54.74
2018-07-12T17:41:44.494Z,54.52
2018-07-12T17:44:48.972Z,55.42
2018-07-12T17:47:53.491Z,55.18
2018-07-12T17:50:58.043Z,56.31
2018-07-12T17:54:02.541Z,57.20
2018-07-12T17:57:07.646Z,57.57
2018-07-12T18:00:12.624Z,58.07
2018-07-12T18:03:19.225Z,58.87
2018-07-12T18:06:24.169Z,58.11
2018-07-12T18:09:28.858Z,58.53
2018-07-12T18:12:33.455Z,58.23
2018-07-12T18:15:39.117Z,59.45
2018-07-12T18:18:44.620Z,59.57
2018-07-12T18:21:49.211Z,60.22
2018-07-12T18:24:54.722Z,59.80
2018-07-12T18:27:59.437Z,60.41
2018-07-12T18:31:03.865Z,61.30
2018-07-12T18:34:08.318Z,62.54
2018-07-12T18:37:12.925Z,62.76
2018-07-12T18:40:17.395Z,62.49
2018-07-12T18:43:21.721Z,63.51
2018-07-12T18:46:26.341Z,63.55
2018-07-12T18:49:31.065Z,63.68
2018-07-12T18:52:35.769Z,63.73
2018-07-12T18:55:40.831Z,65.22
2018-07-12T18:58:45.273Z,65.52
2018-07-12T19:01:49.788Z,66.60
2018-07-12T19:04:54.207Z,66.94
2018-07-12T19:07:58.656Z,66.88
2018-07-12T19:11:03.076Z,66.38
2018-07-12T19:14:07.445Z,67.99
2018-07-12T19:17:12.034Z,69.47
2018-07-12T19:20:16.408Z,69.86
2018-07-12T19:23:20.841Z,71.38
2018-07-12T19:26:25.302Z,71.47
2018-07-12T19:29:29.764Z,72.55
2018-07-12T19:32:34.215Z,72.97
2018-07-12T19:35:38.722Z,73.60
2018-07-12T19:38:43.163Z,73.14
2018-07-12T19:41:47.589Z,73.95
2018-07-12T19:44:51.975Z,73.99
2018-07-12T19:47:56.476Z,74.10
2018-07-12T19:51:01.269Z,74.75
2018-07-12T19:54:05.999Z,74.94
2018-07-12T19:57:10.501Z,75.51
2018-07-12T20:00:15.089Z,75.65
2018-07-12T20:03:19.959Z,77.33
2018-07-12T20:06:24.551Z,77.73
2018-07-12T20:09:29.072Z,77.90
2018-07-12T20:12:33.452Z,79.60
2018-07-12T20:15:38.347Z,79.73
2018-07-12T20:18:42.766Z,80.89
2018-07-12T20:21:47.269Z,80.88
2018-07-12T20:24:51.789Z,81.14
2018-07-12T20:27:56.257Z,81.23
2018-07-12T20:31:00.760Z,81.98
2018-07-12T20:34:05.177Z,82.30
2018-07-12T20:37:09.816Z,82.61
2018-07-12T20:40:14.225Z,82.40
2018-07-12T20:43:20.681Z,83.36
2018-07-12T20:46:25.282Z,83.79
2018-07-12T20:49:29.754Z,84.01
2018-07-12T20:52:34.429Z,84.66
2018-07-12T20:55:41.949Z,83.93
2018-07-12T20:58:46.402Z,84.45
2018-07-12T21:01:50.799Z,85.00
2018-07-12T21:04:55.304Z,85.38
2018-07-12T21:07:59.868Z,85.82
2018-07-12T21:11:04.458Z,85.65
2018-07-12T21:14:09.056Z,85.82
2018-07-12T21:17:13.642Z,86.68
2018-07-12T21:20:18.424Z,86.27
2018-07-12T21:23:23.690Z,87.07
2018-07-12T21:26:28.041Z,86.96
2018-07-12T21:29:32.445Z,87.42
2018-07-12T21:32:37.404Z,87.36
2018-07-12T21:35:41.977Z,87.42
2018-07-12T21:38:46.870Z,87.34
2018-07-12T21:41:51.525Z,87.33
2018-07-12T21:44:56.066Z,86.20
2018-07-12T21:48:00.618Z,87.31
2018-07-12T21:51:05.774Z,88.04
2018-07-12T21:54:10.463Z,88.01
2018-07-12T21:57:15.070Z,87.97
2018-07-12T22:00:19.962Z,88.00
2018-07-12T22:03:24.638Z,88.05
2018-07-12T22:06:59.249Z,88.09
2018-07-12T22:10:04.855Z,89.64
2018-07-12T22:13:10.345Z,89.22
2018-07-12T22:16:14.841Z,90.83
2018-07-12T22:19:19.324Z,90.50
2018-07-12T22:22:23.727Z,90.51
2018-07-12T22:25:28.469Z,90.71
2018-07-12T22:28:32.967Z,91.35
2018-07-12T22:31:37.199Z,90.96
2018-07-12T22:34:41.590Z,91.10
2018-07-12T22:37:46.101Z,91.27
2018-07-12T22:40:50.517Z,91.11
2018-07-12T22:43:54.914Z,91.44
2018-07-12T22:46:59.328Z,91.63
2018-07-12T22:50:03.828Z,91.68
2018-07-12T22:53:08.196Z,91.62
2018-07-12T22:56:12.674Z,91.78
2018-07-12T22:59:16.811Z,92.05
2018-07-12T23:02:21.200Z,92.42
2018-07-12T23:05:25.546Z,92.89
2018-07-12T23:08:29.875Z,92.53
2018-07-12T23:11:34.288Z,92.64
2018-07-12T23:14:38.643Z,93.05
2018-07-12T23:17:43.240Z,93.42
2018-07-12T23:20:47.705Z,93.94
2018-07-12T23:23:52.041Z,94.29
2018-07-12T23:26:56.559Z,94.75
2018-07-12T23:30:00.898Z,94.94
2018-07-12T23:33:05.307Z,94.31
2018-07-12T23:36:10.221Z,94.37
2018-07-12T23:39:15.413Z,94.47
2018-07-12T23:42:20.194Z,94.27
2018-07-12T23:45:25.437Z,94.46
2018-07-12T23:48:30.286Z,94.65
2018-07-12T23:51:35.876Z,94.12
2018-07-12T23:54:40.551Z,94.38
2018-07-12T23:57:45.286Z,94.76
